Terminal Aerodrome Forecast
Issued by NWS Upton, NY

Home | Current Version | Previous Version | Text Only | Print | Product List | Glossary On
Versions: 1 2 3 4 5 6 7 8 9 10 11 12 13 14 15 16 17 18 19 20 21 22 23 24 25 26 27 28 29 30 31 32 33
000
FTUS41 KOKX 210235 AAA
TAFBDR
TAF AMD
KBDR 210235Z 2103/2124 12004KT P6SM OVC020
     FM210600 17004KT 4SM -DZ OVC009
      TEMPO 2109/2113 2SM BR OVC004
     FM211400 26007KT 3SM BR OVC012
     FM211700 26008KT 5SM BR BKN015=

USA.gov is the U.S. government's official web portal to all federal, state and local government web resources and services.